Time;durP1;ratioP1;P1;durP2;ratioP2;P2;SDS_P1;SDS_P2;PMS_P1;PMS_P2;Temp;Humidity;BMP_temperature;BMP_pressure;BME280_temperature;BME280_humidity;BME280_pressure;Samples;Min_cycle;Max_cycle;Signal;HPM_P1;HPM_P2
2023/09/20 00:00:27;;;;;;;0.40;0.40;;;;;;;15.31;71.38;96821.50;29395;249;63010;-54
2023/09/20 00:00:58;;;;;;;0.40;0.40;;;;;;;15.34;71.28;96820.88;29395;231;63009;-53
2023/09/20 00:01:29;;;;;;;0.40;0.40;;;;;;;15.35;71.00;96822.47;29395;219;63005;-53
2023/09/20 00:02:01;;;;;;;0.40;0.40;;;;;;;15.33;70.94;96830.19;29395;228;63009;-53
2023/09/20 00:02:33;;;;;;;0.40;0.40;;;;;;;15.31;71.43;96820.72;29394;308;64004;-53
2023/09/20 00:03:05;;;;;;;0.40;0.40;;;;;;;15.31;71.08;96826.97;29395;218;63009;-53
2023/09/20 00:03:38;;;;;;;0.40;0.40;;;;;;;15.30;71.29;96819.91;29395;213;63004;-53
2023/09/20 00:04:09;;;;;;;0.40;0.40;;;;;;;15.30;71.24;96819.91;29395;234;63009;-53
2023/09/20 00:04:47;;;;;;;0.47;0.47;;;;;;;15.32;71.30;96825.84;29395;221;63004;-53
2023/09/20 00:05:21;;;;;;;0.40;0.40;;;;;;;15.31;71.03;96821.50;29395;229;63008;-53
2023/09/20 00:05:54;;;;;;;0.50;0.50;;;;;;;15.32;71.03;96819.59;29395;236;63004;-53
2023/09/20 00:06:26;;;;;;;0.40;0.40;;;;;;;15.29;71.41;96823.75;29395;282;63008;-53
2023/09/20 00:06:58;;;;;;;0.43;0.43;;;;;;;15.27;71.33;96827.94;29394;221;64005;-53
2023/09/20 00:07:29;;;;;;;0.40;0.40;;;;;;;15.26;71.24;96823.59;29394;224;64009;-53
2023/09/20 00:08:03;;;;;;;0.47;0.47;;;;;;;15.26;71.79;96818.94;29394;334;64005;-53
2023/09/20 00:08:35;;;;;;;0.40;0.40;;;;;;;15.25;71.88;96828.28;29395;219;63009;-53
2023/09/20 00:09:08;;;;;;;0.40;0.40;;;;;;;15.22;71.82;96826.22;29395;281;63015;-53
2023/09/20 00:09:40;;;;;;;0.43;0.43;;;;;;;15.22;72.23;96826.22;29395;222;63009;-53
2023/09/20 00:10:15;;;;;;;0.40;0.40;;;;;;;15.21;71.99;96821.88;29395;234;63004;-53
2023/09/20 00:10:46;;;;;;;0.40;0.40;;;;;;;15.20;71.95;96824.94;29395;215;63009;-53
2023/09/20 00:11:18;;;;;;;0.40;0.40;;;;;;;15.20;71.77;96824.94;29395;230;63004;-53
2023/09/20 00:11:50;;;;;;;0.50;0.50;;;;;;;15.18;72.08;96814.31;29395;235;63009;-53
2023/09/20 00:12:24;;;;;;;0.40;0.40;;;;;;;15.19;71.90;96818.66;29394;285;64004;-53
2023/09/20 00:12:56;;;;;;;0.40;0.40;;;;;;;15.16;72.21;96822.03;29395;199;63008;-53
2023/09/20 00:13:27;;;;;;;0.40;0.40;;;;;;;15.15;72.75;96822.37;29395;230;63001;-52
2023/09/20 00:13:58;;;;;;;0.40;0.40;;;;;;;15.11;72.91;96819.47;29395;221;63014;-53
2023/09/20 00:14:30;;;;;;;0.47;0.47;;;;;;;15.11;72.53;96821.41;29394;202;64005;-54
2023/09/20 00:15:01;;;;;;;0.40;0.40;;;;;;;15.12;72.58;96815.59;29395;231;63009;-53
2023/09/20 00:15:32;;;;;;;0.50;0.50;;;;;;;15.11;72.22;96822.19;29395;299;63005;-53
2023/09/20 00:16:04;;;;;;;0.50;0.50;;;;;;;15.10;72.48;96826.06;29395;236;63009;-54
2023/09/20 00:16:35;;;;;;;0.50;0.50;;;;;;;15.09;72.70;96813.53;29395;251;63000;-52
2023/09/20 00:17:06;;;;;;;0.50;0.50;;;;;;;15.06;72.66;96816.91;29395;303;63009;-53
2023/09/20 00:17:39;;;;;;;0.50;0.50;;;;;;;15.05;72.63;96818.03;29395;203;63004;-52
2023/09/20 00:18:12;;;;;;;0.50;0.50;;;;;;;15.07;72.58;96821.25;29395;226;63004;-53
2023/09/20 00:18:43;;;;;;;0.40;0.40;;;;;;;15.08;72.77;96817.38;29394;207;64004;-53
2023/09/20 00:19:16;;;;;;;0.40;0.40;;;;;;;15.08;72.60;96822.84;29394;202;64009;-53
2023/09/20 00:19:47;;;;;;;0.50;0.50;;;;;;;15.10;72.64;96815.13;29394;230;64004;-53
2023/09/20 00:20:19;;;;;;;2.20;2.10;;;;;;;15.10;72.70;96817.88;29395;211;63008;-52
2023/09/20 00:20:51;;;;;;;0.40;0.40;;;;;;;15.08;72.34;96817.38;29395;202;63004;-54
2023/09/20 00:21:23;;;;;;;0.50;0.50;;;;;;;15.09;72.34;96824.44;29395;220;63009;-54
2023/09/20 00:21:55;;;;;;;0.50;0.50;;;;;;;15.05;72.54;96828.94;29395;212;63005;-52
2023/09/20 00:22:26;;;;;;;0.50;0.50;;;;;;;15.03;72.62;96815.63;29395;249;63009;-53
2023/09/20 00:23:00;;;;;;;0.50;0.50;;;;;;;15.04;72.91;96821.88;29395;206;63005;-51
2023/09/20 00:23:32;;;;;;;0.40;0.40;;;;;;;15.07;72.87;96822.03;29395;210;63009;-53
2023/09/20 00:24:04;;;;;;;0.50;0.50;;;;;;;15.06;72.47;96816.91;29395;237;63005;-53
2023/09/20 00:24:37;;;;;;;0.40;0.40;;;;;;;15.07;72.38;96815.78;29394;228;64009;-53
2023/09/20 00:25:10;;;;;;;0.40;0.40;;;;;;;15.09;72.48;96819.00;29395;211;63011;-53
2023/09/20 00:25:42;;;;;;;0.50;0.50;;;;;;;15.08;72.76;96809.19;29395;205;63009;-53
2023/09/20 00:26:13;;;;;;;0.50;0.50;;;;;;;15.07;72.39;96816.56;29395;211;63004;-53
2023/09/20 00:26:44;;;;;;;0.50;0.50;;;;;;;15.06;72.53;96820.44;29395;237;63009;-52
2023/09/20 00:27:16;;;;;;;0.50;0.50;;;;;;;15.05;72.45;96816.09;29395;223;63004;-54
2023/09/20 00:27:47;;;;;;;0.40;0.40;;;;;;;15.09;72.38;96819.00;29395;238;63008;-53
2023/09/20 00:28:18;;;;;;;0.50;0.50;;;;;;;15.12;72.39;96817.53;29395;203;63009;-53
2023/09/20 00:28:49;;;;;;;0.50;0.50;;;;;;;15.16;72.24;96810.31;29395;227;63009;-53
2023/09/20 00:29:24;;;;;;;0.40;0.40;;;;;;;15.17;72.30;96817.38;29394;219;64005;-63
2023/09/20 00:29:55;;;;;;;0.50;0.50;;;;;;;15.16;72.23;96819.31;29395;309;63027;-53
2023/09/20 00:30:27;;;;;;;0.50;0.50;;;;;;;15.14;71.95;96816.09;29395;254;63005;-53
2023/09/20 00:31:00;;;;;;;0.50;0.50;;;;;;;15.12;71.90;96815.59;29394;265;64009;-54
2023/09/20 00:31:32;;;;;;;0.50;0.50;;;;;;;15.12;72.04;96812.06;29395;232;63010;-53
2023/09/20 00:32:04;;;;;;;0.40;0.40;;;;;;;15.13;72.13;96808.22;29394;202;64009;-53
2023/09/20 00:32:36;;;;;;;0.50;0.50;;;;;;;15.14;72.00;96810.62;29395;200;63009;-52
2023/09/20 00:33:07;;;;;;;0.50;0.50;;;;;;;15.16;71.88;96808.37;29395;205;63021;-52
2023/09/20 00:33:39;;;;;;;0.50;0.50;;;;;;;15.15;72.20;96816.91;29395;230;63004;-53
2023/09/20 00:34:11;;;;;;;0.50;0.50;;;;;;;15.10;71.93;96806.94;29395;208;63009;-61
2023/09/20 00:34:42;;;;;;;0.45;0.45;;;;;;;15.09;72.07;96813.53;29395;206;63004;-53
2023/09/20 00:35:16;;;;;;;0.50;0.50;;;;;;;15.06;72.51;96805.97;29395;250;63008;-53
2023/09/20 00:35:50;;;;;;;0.50;0.50;;;;;;;15.07;72.40;96810.31;29395;211;63004;-53
2023/09/20 00:36:23;;;;;;;0.50;0.50;;;;;;;15.08;72.67;96807.25;29395;228;63009;-53
2023/09/20 00:36:54;;;;;;;0.40;0.40;;;;;;;15.07;72.50;96811.12;29394;208;64005;-64
2023/09/20 00:37:26;;;;;;;0.40;0.40;;;;;;;15.05;72.54;96804.34;29395;232;63014;-53
2023/09/20 00:37:59;;;;;;;0.50;0.50;;;;;;;15.06;72.36;96808.69;29395;214;63005;-53
2023/09/20 00:38:30;;;;;;;0.60;0.60;;;;;;;15.08;72.68;96811.91;29395;219;63009;-53
2023/09/20 00:39:02;;;;;;;0.50;0.50;;;;;;;15.09;72.46;96802.59;29395;268;63005;-54
2023/09/20 00:39:36;;;;;;;0.50;0.50;;;;;;;15.07;72.59;96805.66;29395;241;63009;-52
2023/09/20 00:40:20;;;;;;;0.50;0.50;;;;;;;15.10;72.60;96804.19;29394;197;64005;-55
2023/09/20 00:40:53;;;;;;;0.50;0.50;;;;;;;15.11;72.46;96799.53;29395;207;63004;-53
2023/09/20 00:41:25;;;;;;;0.50;0.50;;;;;;;15.06;72.43;96797.78;29394;227;64004;-62
2023/09/20 00:41:58;;;;;;;0.50;0.50;;;;;;;15.04;72.48;96802.75;29395;327;63004;-59
2023/09/20 00:42:31;;;;;;;0.50;0.50;;;;;;;15.02;72.46;96805.00;29395;209;63004;-54
2023/09/20 00:43:06;;;;;;;0.50;0.50;;;;;;;15.01;72.84;96803.41;29395;230;63008;-53
2023/09/20 00:43:38;;;;;;;0.50;0.50;;;;;;;14.97;72.51;96796.97;29395;197;63005;-53
2023/09/20 00:44:10;;;;;;;0.50;0.50;;;;;;;14.94;73.06;96801.16;29395;406;63011;-53
2023/09/20 00:44:42;;;;;;;0.50;0.50;;;;;;;14.92;72.90;96805.31;29395;197;63005;-53
2023/09/20 00:45:15;;;;;;;0.50;0.50;;;;;;;14.92;73.07;96808.06;29394;239;64009;-53
2023/09/20 00:45:46;;;;;;;0.40;0.40;;;;;;;14.93;72.99;96806.94;29395;199;63005;-52
2023/09/20 00:46:21;;;;;;;0.40;0.40;;;;;;;14.92;73.26;96808.88;29395;236;63009;-53
2023/09/20 00:46:53;;;;;;;0.50;0.50;;;;;;;14.95;73.17;96801.94;29395;209;63005;-53
2023/09/20 00:47:26;;;;;;;0.40;0.40;;;;;;;14.95;73.04;96807.41;29395;292;63009;-63
2023/09/20 00:47:59;;;;;;;0.40;0.40;;;;;;;14.95;73.32;96808.22;29394;197;64004;-53
2023/09/20 00:48:31;;;;;;;0.50;0.50;;;;;;;14.93;73.21;96804.19;29395;202;63009;-54
2023/09/20 00:49:03;;;;;;;0.50;0.50;;;;;;;14.93;73.00;96807.75;29395;215;63004;-53
2023/09/20 00:49:35;;;;;;;0.40;0.40;;;;;;;14.90;73.35;96799.41;29395;393;63009;-52
2023/09/20 00:50:10;;;;;;;0.43;0.43;;;;;;;14.89;73.13;96800.53;29395;228;63004;-65
2023/09/20 00:50:43;;;;;;;0.50;0.50;;;;;;;14.85;73.50;96805.03;29395;227;63008;-53
2023/09/20 00:51:15;;;;;;;0.47;0.47;;;;;;;14.82;73.35;96802.94;29395;255;63005;-53
2023/09/20 00:51:50;;;;;;;0.45;0.45;;;;;;;14.82;73.46;96800.22;29394;204;64009;-53
2023/09/20 00:52:24;;;;;;;0.40;0.40;;;;;;;14.82;73.72;96800.22;29394;267;64005;-53
2023/09/20 00:52:56;;;;;;;0.40;0.40;;;;;;;14.79;74.12;96809.06;29395;225;63009;-53
2023/09/20 00:53:28;;;;;;;0.40;0.40;;;;;;;14.75;73.91;96790.56;29394;228;64005;-62
2023/09/20 00:54:04;;;;;;;0.47;0.47;;;;;;;14.75;74.15;96797.97;29395;258;63009;-64
2023/09/20 00:54:35;;;;;;;0.47;0.47;;;;;;;14.75;74.07;96798.75;29395;254;63005;-54
2023/09/20 00:55:11;;;;;;;0.50;0.50;;;;;;;14.74;74.18;96797.16;29395;223;63009;-63
2023/09/20 00:55:45;;;;;;;0.50;0.50;;;;;;;14.73;73.97;96795.56;29395;234;63004;-53
2023/09/20 00:56:16;;;;;;;0.50;0.50;;;;;;;14.72;74.24;96793.13;29395;206;63009;-53
2023/09/20 00:56:50;;;;;;;0.45;0.45;;;;;;;14.73;74.06;96794.75;29395;221;63004;-53
2023/09/20 00:57:21;;;;;;;0.40;0.40;;;;;;;14.69;74.38;96793.78;29395;214;63009;-53
2023/09/20 00:57:56;;;;;;;0.50;0.50;;;;;;;14.69;74.12;96793.78;29395;227;63004;-53
2023/09/20 00:58:29;;;;;;;0.40;0.40;;;;;;;14.68;74.12;96790.25;29394;244;64008;-53
2023/09/20 00:59:06;;;;;;;0.45;0.45;;;;;;;14.66;74.23;96789.75;29395;197;63005;-63
2023/09/20 00:59:39;;;;;;;0.40;0.40;;;;;;;14.65;74.45;96793.63;29394;237;64009;-53
2023/09/20 01:00:21;;;;;;;0.40;0.40;;;;;;;14.66;74.57;96795.22;29394;211;64005;-53
2023/09/20 01:00:55;;;;;;;0.40;0.40;;;;;;;14.68;74.53;96786.72;29395;250;63009;-53
2023/09/20 01:01:27;;;;;;;0.50;0.50;;;;;;;14.66;74.69;96795.22;29395;278;63005;-53
2023/09/20 01:02:00;;;;;;;0.50;0.50;;;;;;;14.66;74.71;96788.97;29395;220;63009;-53
2023/09/20 01:02:31;;;;;;;0.40;0.40;;;;;;;14.64;74.55;96786.53;29395;198;63005;-53
2023/09/20 01:03:05;;;;;;;0.40;0.40;;;;;;;14.64;74.82;96783.00;29395;200;63009;-53
2023/09/20 01:03:40;;;;;;;0.50;0.50;;;;;;;14.64;74.61;96785.75;29395;302;63004;-53
2023/09/20 01:04:11;;;;;;;0.40;0.40;;;;;;;14.61;74.81;96786.38;29395;253;63009;-53
2023/09/20 01:04:44;;;;;;;0.43;0.43;;;;;;;14.60;74.66;96785.56;29395;224;63011;-52
2023/09/20 01:05:21;;;;;;;0.50;0.50;;;;;;;14.62;74.59;96788.78;29394;231;64009;-53
2023/09/20 01:05:53;;;;;;;0.40;0.40;;;;;;;14.64;74.69;96789.28;29395;214;63004;-52
2023/09/20 01:06:28;;;;;;;0.45;0.45;;;;;;;14.61;74.77;96776.25;29395;215;63030;-54
2023/09/20 01:07:03;;;;;;;0.40;0.40;;;;;;;14.62;74.83;96788.00;29394;220;64005;-52
2023/09/20 01:07:34;;;;;;;0.50;0.50;;;;;;;14.61;74.73;96789.12;29395;210;63009;-53
2023/09/20 01:08:06;;;;;;;0.40;0.40;;;;;;;14.63;74.58;96790.41;29395;218;63005;-52
2023/09/20 01:08:39;;;;;;;0.50;0.50;;;;;;;14.65;74.65;96782.69;29395;278;63009;-53
2023/09/20 01:09:13;;;;;;;0.43;0.43;;;;;;;14.66;74.40;96780.75;29395;224;63005;-53
2023/09/20 01:09:47;;;;;;;0.40;0.40;;;;;;;14.67;74.65;96783.19;29394;323;64009;-53
2023/09/20 01:10:23;;;;;;;0.40;0.40;;;;;;;14.67;74.50;96783.19;29395;317;63004;-54
2023/09/20 01:10:55;;;;;;;0.40;0.40;;;;;;;14.70;74.53;96784.47;29395;220;63009;-53
2023/09/20 01:11:27;;;;;;;0.40;0.40;;;;;;;14.69;74.17;96782.84;29395;226;63014;-53
2023/09/20 01:11:59;;;;;;;0.40;0.40;;;;;;;14.67;74.49;96780.44;29395;255;63015;-53
2023/09/20 01:12:31;;;;;;;0.40;0.40;;;;;;;14.64;74.45;96781.09;29394;218;64004;-53
2023/09/20 01:13:04;;;;;;;0.40;0.40;;;;;;;14.62;74.59;96782.53;29395;266;63008;-53
2023/09/20 01:13:37;;;;;;;0.40;0.40;;;;;;;14.64;74.46;96780.28;29395;288;63004;-53
2023/09/20 01:14:09;;;;;;;0.40;0.40;;;;;;;14.63;74.45;96779.47;29395;295;63009;-53
2023/09/20 01:14:40;;;;;;;0.40;0.40;;;;;;;14.62;74.37;96788.78;29395;238;63005;-53
2023/09/20 01:15:11;;;;;;;0.40;0.40;;;;;;;14.64;74.79;96785.75;29395;218;63009;-53
2023/09/20 01:15:44;;;;;;;0.40;0.40;;;;;;;14.65;74.46;96784.63;29395;237;63005;-53
2023/09/20 01:16:16;;;;;;;0.40;0.40;;;;;;;14.62;74.67;96783.34;29395;329;63009;-54
2023/09/20 01:16:53;;;;;;;0.40;0.40;;;;;;;14.64;74.55;96783.81;29395;236;63005;-53
2023/09/20 01:17:25;;;;;;;0.40;0.40;;;;;;;14.66;74.78;96787.03;29395;221;63004;-64
2023/09/20 01:17:57;;;;;;;0.40;0.40;;;;;;;14.68;74.72;96782.06;29394;207;64004;-52
2023/09/20 01:18:28;;;;;;;0.40;0.40;;;;;;;14.71;74.55;96786.06;29395;254;63009;-53
2023/09/20 01:19:00;;;;;;;0.40;0.40;;;;;;;14.71;74.15;96783.34;29395;227;63004;-53
2023/09/20 01:19:32;;;;;;;0.40;0.40;;;;;;;14.69;74.18;96783.66;29395;212;63009;-53
2023/09/20 01:20:14;;;;;;;0.40;0.40;;;;;;;14.69;74.15;96783.66;29395;276;63004;-53
2023/09/20 01:20:45;;;;;;;;;;;;;;;14.70;74.47;96785.25;29996;983;6005;-61
2023/09/20 01:21:16;;;;;;;0.43;0.43;;;;;;;14.70;74.24;96779.81;29422;315;63009;-52
2023/09/20 01:21:47;;;;;;;0.40;0.40;;;;;;;14.68;74.37;96787.50;29395;260;63005;-53
2023/09/20 01:22:19;;;;;;;0.47;0.47;;;;;;;14.67;74.25;96791.38;29395;226;63009;-53
2023/09/20 01:22:53;;;;;;;0.40;0.40;;;;;;;14.68;74.54;96781.25;29395;224;63005;-53
2023/09/20 01:23:27;;;;;;;0.40;0.40;;;;;;;14.69;74.46;96778.19;29394;219;64009;-52
2023/09/20 01:23:59;;;;;;;0.90;0.90;;;;;;;14.72;74.20;96782.22;29395;215;63005;-53
2023/09/20 01:24:33;;;;;;;0.40;0.40;;;;;;;14.68;74.21;96792.16;29395;298;63009;-53
2023/09/20 01:25:09;;;;;;;0.40;0.40;;;;;;;14.66;74.69;96784.31;29395;300;63004;-53
2023/09/20 01:25:42;;;;;;;0.50;0.50;;;;;;;14.66;74.32;96786.22;29395;218;63026;-53
2023/09/20 01:26:14;;;;;;;0.43;0.43;;;;;;;14.63;74.62;96784.13;29395;270;63004;-53
2023/09/20 01:26:49;;;;;;;0.43;0.43;;;;;;;14.62;74.51;96786.06;29395;302;63019;-53
2023/09/20 01:27:21;;;;;;;0.50;0.50;;;;;;;14.61;74.60;96781.72;29395;208;63004;-53
2023/09/20 01:28:00;;;;;;;0.50;0.50;;;;;;;14.58;74.79;96787.81;29395;196;63008;-53
2023/09/20 01:28:31;;;;;;;0.50;0.50;;;;;;;14.54;74.87;96775.16;29394;216;64005;-53
2023/09/20 01:29:02;;;;;;;0.47;0.47;;;;;;;14.52;75.17;96783.69;29395;217;63009;-54
2023/09/20 01:29:35;;;;;;;0.40;0.40;;;;;;;14.52;75.24;96783.69;29395;305;63005;-53
2023/09/20 01:30:08;;;;;;;0.40;0.40;;;;;;;14.50;75.26;96777.72;29395;234;63009;-53
2023/09/20 01:30:42;;;;;;;0.43;0.43;;;;;;;14.53;75.28;96795.41;29395;262;63009;-53
2023/09/20 01:31:13;;;;;;;0.50;0.50;;;;;;;14.51;75.29;96779.34;29395;206;63009;-53
2023/09/20 01:31:47;;;;;;;0.40;0.40;;;;;;;14.50;75.32;96785.91;29395;199;63005;-54
2023/09/20 01:32:20;;;;;;;0.40;0.40;;;;;;;14.46;75.50;96782.22;29395;202;63009;-53
2023/09/20 01:32:56;;;;;;;0.43;0.43;;;;;;;14.46;75.47;96784.94;29395;216;63004;-53
2023/09/20 01:33:27;;;;;;;0.40;0.40;;;;;;;14.48;75.30;96782.69;29395;353;63009;-53
2023/09/20 01:33:58;;;;;;;0.40;0.40;;;;;;;14.50;76.06;96790.56;29394;219;64004;-53
2023/09/20 01:34:30;;;;;;;0.40;0.40;;;;;;;14.47;75.65;96785.75;29395;223;63009;-53
2023/09/20 01:40:15;;;;;;;3.50;3.40;;;;;;;14.58;75.76;96793.28;29394;207;64005;-52
2023/09/20 01:40:47;;;;;;;0.50;0.50;;;;;;;14.59;75.81;96780.44;29394;220;64009;-53
2023/09/20 01:41:19;;;;;;;0.40;0.40;;;;;;;14.58;75.84;96782.38;29394;225;64005;-53
2023/09/20 01:41:50;;;;;;;0.40;0.40;;;;;;;14.57;75.84;96780.75;29395;280;63009;-52
2023/09/20 01:42:22;;;;;;;0.40;0.40;;;;;;;14.57;75.89;96779.94;29395;271;63004;-53
2023/09/20 01:42:53;;;;;;;0.40;0.40;;;;;;;14.56;75.82;96779.16;29395;199;63016;-53
2023/09/20 01:43:25;;;;;;;0.40;0.40;;;;;;;14.58;75.58;96779.63;29395;233;63004;-52
2023/09/20 01:43:57;;;;;;;0.40;0.40;;;;;;;14.61;75.29;96780.91;29395;197;63008;-52
2023/09/20 01:44:28;;;;;;;0.40;0.40;;;;;;;14.60;75.20;96782.03;29395;295;63004;-53
2023/09/20 01:45:00;;;;;;;0.40;0.40;;;;;;;14.60;75.19;96782.03;29395;216;63009;-52
2023/09/20 01:45:34;;;;;;;0.50;0.50;;;;;;;14.58;75.26;96774.16;29395;222;63005;-52
2023/09/20 01:46:07;;;;;;;0.45;0.45;;;;;;;14.60;75.03;96776.59;29394;211;64009;-52
2023/09/20 01:46:41;;;;;;;0.50;0.50;;;;;;;14.61;75.16;96779.00;29394;212;64005;-52
2023/09/20 01:47:12;;;;;;;0.45;0.45;;;;;;;14.61;75.29;96781.72;29395;227;63027;-53
2023/09/20 01:47:45;;;;;;;0.50;0.50;;;;;;;14.63;75.14;96779.47;29395;271;63005;-63
2023/09/20 01:48:17;;;;;;;0.50;0.50;;;;;;;14.62;75.29;96783.34;29395;205;63009;-53
2023/09/20 01:48:48;;;;;;;0.40;0.40;;;;;;;14.61;75.22;96786.38;29395;233;63005;-53
2023/09/20 01:49:21;;;;;;;0.50;0.50;;;;;;;14.57;75.42;96780.75;29395;197;63009;-53
2023/09/20 01:49:53;;;;;;;0.50;0.50;;;;;;;14.56;75.28;96783.81;29395;196;63004;-52
2023/09/20 01:50:24;;;;;;;0.50;0.50;;;;;;;14.54;75.41;96777.91;29395;226;63009;-52
2023/09/20 01:50:56;;;;;;;0.50;0.50;;;;;;;14.56;75.32;96781.06;29395;213;63004;-52
2023/09/20 01:51:28;;;;;;;0.45;0.45;;;;;;;14.57;75.14;96778.03;29394;222;64008;-52
2023/09/20 01:51:59;;;;;;;0.50;0.50;;;;;;;14.58;75.39;96778.81;29395;233;63004;-63
2023/09/20 01:52:30;;;;;;;0.40;0.40;;;;;;;14.56;75.49;96773.69;29395;230;63009;-53
2023/09/20 01:53:05;;;;;;;0.50;0.50;;;;;;;14.54;75.48;96786.88;29395;236;63005;-53
2023/09/20 01:53:36;;;;;;;0.50;0.50;;;;;;;14.54;75.33;96775.97;29395;219;63009;-53
2023/09/20 01:54:08;;;;;;;0.50;0.50;;;;;;;14.54;75.62;96770.50;29395;218;63005;-53
2023/09/20 01:54:40;;;;;;;0.50;0.50;;;;;;;14.54;75.46;96770.50;29395;244;63009;-53
2023/09/20 01:55:15;;;;;;;0.40;0.40;;;;;;;14.54;75.25;96767.78;29395;199;63005;-53
2023/09/20 01:55:47;;;;;;;0.43;0.43;;;;;;;14.55;75.41;96774.84;29395;353;63009;-53
2023/09/20 01:56:21;;;;;;;0.40;0.40;;;;;;;14.56;75.70;96776.41;29395;394;63014;-54
2023/09/20 01:56:52;;;;;;;0.50;0.50;;;;;;;14.56;75.25;96773.69;29394;224;64009;-53
2023/09/20 01:57:24;;;;;;;0.50;0.50;;;;;;;14.55;75.26;96766.66;29395;202;63004;-53
2023/09/20 01:57:56;;;;;;;0.50;0.50;;;;;;;14.55;75.35;96777.56;29395;211;63012;-53
2023/09/20 01:58:28;;;;;;;0.50;0.50;;;;;;;14.55;75.27;96771.31;29395;202;63004;-54
2023/09/20 01:59:00;;;;;;;0.40;0.40;;;;;;;14.53;75.45;96774.34;29395;196;63008;-54
2023/09/20 01:59:31;;;;;;;0.40;0.40;;;;;;;14.52;75.63;96777.41;29395;201;63004;-54
2023/09/20 02:00:10;;;;;;;0.43;0.43;;;;;;;14.50;75.46;96780.47;29395;284;63009;-53
2023/09/20 02:00:42;;;;;;;0.40;0.40;;;;;;;14.47;75.76;96775.63;29395;285;63005;-52
2023/09/20 02:01:17;;;;;;;0.40;0.40;;;;;;;14.50;75.73;96777.72;29395;210;63009;-53
2023/09/20 02:01:49;;;;;;;0.40;0.40;;;;;;;14.51;75.59;96764.88;29395;206;63005;-53
2023/09/20 02:02:22;;;;;;;0.47;0.47;;;;;;;14.50;75.38;96769.53;29394;251;64009;-53
2023/09/20 02:02:54;;;;;;;0.47;0.47;;;;;;;14.50;75.55;96772.28;29395;239;63005;-53
2023/09/20 02:03:27;;;;;;;0.40;0.40;;;;;;;14.51;75.31;96770.34;29395;263;63009;-52
2023/09/20 02:03:59;;;;;;;0.50;0.50;;;;;;;14.51;75.61;96768.41;29394;327;64004;-53
2023/09/20 02:04:31;;;;;;;0.45;0.45;;;;;;;14.51;75.70;96778.53;29395;198;63009;-53
2023/09/20 02:05:04;;;;;;;0.40;0.40;;;;;;;14.50;75.54;96766.00;29395;220;63004;-53
2023/09/20 02:05:36;;;;;;;0.45;0.45;;;;;;;14.47;75.86;96767.44;29395;291;63009;-53
2023/09/20 02:06:08;;;;;;;0.50;0.50;;;;;;;14.47;75.76;96775.63;29395;210;63015;-53
2023/09/20 02:06:39;;;;;;;0.40;0.40;;;;;;;14.47;75.73;96764.72;29395;240;63026;-52
2023/09/20 02:07:11;;;;;;;0.50;0.50;;;;;;;14.46;75.91;96768.56;29395;207;63005;-53
2023/09/20 02:07:45;;;;;;;0.40;0.40;;;;;;;14.46;75.92;96759.56;29394;274;63999;-53
2023/09/20 02:08:17;;;;;;;0.40;0.40;;;;;;;14.46;75.87;96773.22;29395;206;63005;-53
2023/09/20 02:08:48;;;;;;;0.50;0.50;;;;;;;14.48;75.92;96771.78;29395;278;63009;-53
2023/09/20 02:09:20;;;;;;;0.40;0.40;;;;;;;14.49;76.05;96773.38;29395;365;63005;-53
2023/09/20 02:09:53;;;;;;;0.50;0.50;;;;;;;14.50;76.02;96769.53;29395;362;63009;-53
2023/09/20 02:10:24;;;;;;;0.40;0.40;;;;;;;14.47;76.63;96764.72;29395;202;63005;-53
2023/09/20 02:10:56;;;;;;;0.40;0.40;;;;;;;14.46;76.07;96763.09;29395;228;63009;-53
2023/09/20 02:11:28;;;;;;;0.45;0.45;;;;;;;14.45;76.43;96763.44;29395;234;63004;-64
2023/09/20 02:12:00;;;;;;;0.50;0.50;;;;;;;14.43;76.14;96777.41;29395;202;63009;-52
2023/09/20 02:12:31;;;;;;;0.40;0.40;;;;;;;14.43;76.71;96769.22;29395;205;63004;-52
2023/09/20 02:13:03;;;;;;;0.50;0.50;;;;;;;14.45;76.18;96772.41;29394;203;64009;-53
2023/09/20 02:13:36;;;;;;;0.50;0.50;;;;;;;14.47;75.97;96769.37;29395;319;63004;-53
2023/09/20 02:14:07;;;;;;;0.50;0.50;;;;;;;14.46;75.89;96763.09;29395;213;63009;-53
2023/09/20 02:14:38;;;;;;;0.40;0.40;;;;;;;14.47;75.85;96763.91;29395;200;63005;-53
2023/09/20 02:15:11;;;;;;;0.40;0.40;;;;;;;14.48;75.99;96762.78;29395;206;63009;-53
2023/09/20 02:15:43;;;;;;;0.40;0.40;;;;;;;14.47;76.05;96762.00;29395;235;63015;-53
2023/09/20 02:16:16;;;;;;;0.50;0.50;;;;;;;14.46;76.23;96771.28;29395;209;63009;-52
2023/09/20 02:16:48;;;;;;;0.40;0.40;;;;;;;14.44;76.28;96759.09;29394;300;64005;-53
2023/09/20 02:17:20;;;;;;;0.50;0.50;;;;;;;14.44;76.38;96770.81;29395;215;63009;-52
2023/09/20 02:17:52;;;;;;;0.40;0.40;;;;;;;14.44;76.18;96770.81;29395;228;63005;-52
2023/09/20 02:18:24;;;;;;;0.40;0.40;;;;;;;14.44;76.04;96775.47;29395;214;63009;-52
2023/09/20 02:18:55;;;;;;;0.40;0.40;;;;;;;14.43;76.33;96774.66;29395;205;63004;-52
2023/09/20 02:19:26;;;;;;;0.45;0.45;;;;;;;14.43;75.82;96765.66;29395;210;63009;-52
2023/09/20 02:19:58;;;;;;;0.50;0.50;;;;;;;14.41;75.90;96766.00;29394;240;64004;-53
2023/09/20 02:20:34;;;;;;;0.50;0.50;;;;;;;14.40;76.22;96770.63;29395;243;63009;-52
2023/09/20 02:21:06;;;;;;;0.47;0.47;;;;;;;14.39;76.23;96757.28;29395;218;63004;-53
2023/09/20 02:21:38;;;;;;;0.50;0.50;;;;;;;14.39;76.60;96765.47;29394;279;64009;-53
2023/09/20 02:22:12;;;;;;;0.45;0.45;;;;;;;14.40;76.70;96762.44;29395;372;63007;-53
2023/09/20 02:22:43;;;;;;;0.50;0.50;;;;;;;14.40;76.67;96769.81;29395;365;63009;-53
2023/09/20 02:23:15;;;;;;;0.40;0.40;;;;;;;14.40;77.48;96769.81;29395;209;63005;-52
2023/09/20 02:23:46;;;;;;;0.40;0.40;;;;;;;14.40;77.06;96756.16;29395;233;63009;-53
2023/09/20 02:24:18;;;;;;;0.40;0.40;;;;;;;14.40;77.14;96770.63;29395;255;63005;-53
2023/09/20 02:24:54;;;;;;;0.50;0.50;;;;;;;14.39;76.80;96768.19;29395;225;63009;-53
2023/09/20 02:25:26;;;;;;;0.40;0.40;;;;;;;14.38;77.27;96763.88;29395;202;63005;-53
2023/09/20 02:25:57;;;;;;;0.40;0.40;;;;;;;14.38;77.25;96767.41;29395;202;63009;-53
2023/09/20 02:26:28;;;;;;;0.40;0.40;;;;;;;14.38;76.85;96761.13;29394;218;64004;-53
2023/09/20 02:27:00;;;;;;;0.40;0.40;;;;;;;14.39;77.02;96757.28;29395;290;63009;-53
2023/09/20 02:27:34;;;;;;;0.40;0.40;;;;;;;14.39;76.99;96762.75;29395;323;63004;-53
2023/09/20 02:28:07;;;;;;;0.50;0.50;;;;;;;14.39;76.93;96762.75;29395;329;63009;-53
2023/09/20 02:28:40;;;;;;;0.45;0.45;;;;;;;14.38;77.06;96761.94;29395;213;63004;-62
2023/09/20 02:29:15;;;;;;;0.40;0.40;;;;;;;14.40;76.81;96769.81;29395;202;63027;-53
2023/09/20 02:29:46;;;;;;;0.40;0.40;;;;;;;14.41;77.67;96755.06;29395;254;63005;-52
2023/09/20 02:30:19;;;;;;;0.40;0.40;;;;;;;14.39;77.55;96768.19;29395;226;63025;-52
2023/09/20 02:30:52;;;;;;;0.50;0.50;;;;;;;14.37;77.34;96759.53;29396;373;63005;-52
2023/09/20 02:31:23;;;;;;;0.40;0.40;;;;;;;14.37;77.38;96748.63;29395;226;63005;-52
2023/09/20 02:32:00;;;;;;;0.40;0.40;;;;;;;14.39;76.99;96757.28;29394;362;64005;-53
2023/09/20 02:32:32;;;;;;;0.40;0.40;;;;;;;14.40;76.87;96761.63;29395;205;63009;-53
2023/09/20 02:33:07;;;;;;;0.40;0.40;;;;;;;14.40;76.96;96754.25;29395;228;63005;-64
2023/09/20 02:33:39;;;;;;;0.40;0.40;;;;;;;14.40;76.62;96759.69;29395;202;63009;-64
2023/09/20 02:34:13;;;;;;;0.40;0.40;;;;;;;14.40;76.73;96759.69;29394;259;64004;-54
2023/09/20 02:34:45;;;;;;;0.40;0.40;;;;;;;14.40;76.88;96761.63;29395;205;63007;-53
2023/09/20 02:35:16;;;;;;;0.40;0.40;;;;;;;14.40;77.00;96758.91;29395;218;63011;-53
2023/09/20 02:35:48;;;;;;;0.40;0.40;;;;;;;14.40;76.73;96751.50;29395;321;63009;-53
2023/09/20 02:36:20;;;;;;;0.40;0.40;;;;;;;14.42;77.11;96759.41;29394;247;64004;-52
2023/09/20 02:36:51;;;;;;;0.50;0.50;;;;;;;14.42;76.65;96756.69;29395;196;63009;-53
2023/09/20 02:37:23;;;;;;;0.50;0.50;;;;;;;14.44;76.46;96757.16;29395;222;63005;-53
2023/09/20 02:37:56;;;;;;;0.45;0.45;;;;;;;14.43;76.21;96769.22;29395;225;63009;-53
2023/09/20 02:38:28;;;;;;;0.40;0.40;;;;;;;14.46;76.14;96754.91;29395;232;63005;-53
2023/09/20 02:38:59;;;;;;;0.50;0.50;;;;;;;14.48;76.40;96754.59;29395;250;63009;-53
2023/09/20 02:39:31;;;;;;;0.40;0.40;;;;;;;14.50;76.14;96764.06;29395;267;63005;-53
2023/09/20 02:40:11;;;;;;;0.40;0.40;;;;;;;14.53;75.64;96755.25;29395;288;63005;-53
2023/09/20 02:40:46;;;;;;;0.50;0.50;;;;;;;14.53;75.68;96757.97;29395;295;63000;-54